Time;durP1;ratioP1;P1;durP2;ratioP2;P2;SDS_P1;SDS_P2;PMS_P1;PMS_P2;Temp;Humidity;BMP_temperature;BMP_pressure;BME280_temperature;BME280_humidity;BME280_pressure;Samples;Min_cycle;Max_cycle;Signal;HPM_P1;HPM_P2
2022/04/15 00:02:17;;;;;;;0.17;0.17;;;;;;;11.96;85.22;101483.13;5105667;28;20046;-64
2022/04/15 00:04:42;;;;;;;0.17;0.17;;;;;;;12.11;83.78;101488.59;5105681;28;20043;-64
2022/04/15 00:07:10;;;;;;;0.30;0.30;;;;;;;12.23;82.72;101480.41;5087129;28;20647;-64
2022/04/15 00:09:36;;;;;;;0.10;0.10;;;;;;;12.04;82.38;101482.19;5085718;28;20032;-64
2022/04/15 00:12:10;;;;;;;0.10;0.10;;;;;;;12.12;82.57;101486.66;5084590;28;20114;-65
2022/04/15 00:14:36;;;;;;;0.10;0.10;;;;;;;12.08;83.11;101485.78;5086002;28;20110;-63
2022/04/15 00:17:02;;;;;;;0.13;0.13;;;;;;;11.68;84.24;101491.97;5105172;28;20127;-66
2022/04/15 00:19:27;;;;;;;0.10;0.10;;;;;;;11.97;83.21;101488.19;5106439;28;20013;-66
2022/04/15 00:21:53;;;;;;;0.10;0.10;;;;;;;11.92;83.15;101491.13;5106442;28;20050;-66
2022/04/15 00:24:18;;;;;;;0.30;0.30;;;;;;;12.03;81.77;101489.50;5099378;28;20474;-66
2022/04/15 00:26:44;;;;;;;0.10;0.10;;;;;;;11.87;82.14;101496.75;5095413;28;20093;-67
2022/04/15 00:29:09;;;;;;;0.10;0.10;;;;;;;11.73;82.65;101489.03;5104181;28;20032;-66
2022/04/15 00:31:35;;;;;;;0.25;0.25;;;;;;;11.70;82.95;101489.72;5103305;28;20039;-66
2022/04/15 00:34:02;;;;;;;0.10;0.10;;;;;;;11.69;83.07;101493.53;5105073;28;20470;-66
2022/04/15 00:36:28;;;;;;;0.10;0.10;;;;;;;12.02;81.59;101482.53;5091775;28;20031;-66
2022/04/15 00:38:54;;;;;;;0.10;0.10;;;;;;;11.83;82.43;101482.38;5085080;28;20487;-67
2022/04/15 00:41:19;;;;;;;0.10;0.10;;;;;;;11.99;81.39;101487.84;5085131;28;20109;-66
2022/04/15 00:43:45;;;;;;;0.10;0.10;;;;;;;11.84;82.37;101483.16;5084738;28;20040;-67
2022/04/15 00:46:11;;;;;;;0.10;0.10;;;;;;;11.84;82.65;101483.97;5084195;28;20044;-67
2022/04/15 00:48:37;;;;;;;0.10;0.10;;;;;;;11.91;82.25;101488.75;5082228;28;20123;-66
2022/04/15 00:51:06;;;;;;;0.10;0.10;;;;;;;11.89;82.44;101491.81;5089841;28;20019;-67
2022/04/15 00:53:33;;;;;;;0.20;0.20;;;;;;;11.95;81.93;101489.63;5103799;28;20549;-66
2022/04/15 00:56:03;;;;;;;0.10;0.10;;;;;;;11.69;83.58;101506.25;5100517;28;20037;-66
2022/04/15 00:58:32;;;;;;;0.00;0.00;;;;;;;11.94;81.82;101488.88;5104297;28;20039;-66
2022/04/15 01:00:58;;;;;;;0.10;0.10;;;;;;;11.87;82.64;101495.97;5088398;28;20066;-65
2022/04/15 01:03:24;;;;;;;0.10;0.10;;;;;;;11.82;82.81;101491.59;5119662;27;20042;-66
2022/04/15 01:05:56;;;;;;;0.10;0.10;;;;;;;11.73;84.19;101499.81;5123140;27;20035;-66
2022/04/15 01:08:23;;;;;;;0.28;0.28;;;;;;;11.76;83.76;101509.16;5122556;27;20084;-67
2022/04/15 01:10:52;;;;;;;0.10;0.10;;;;;;;11.93;83.14;101502.69;5103368;27;20091;-66
2022/04/15 01:13:18;;;;;;;0.10;0.10;;;;;;;11.91;82.78;101494.16;5103764;28;20035;-66
2022/04/15 01:15:43;;;;;;;0.10;0.10;;;;;;;12.00;82.18;101511.00;5103023;28;20039;-66
2022/04/15 01:18:09;;;;;;;0.35;0.30;;;;;;;11.91;83.32;101508.44;5104252;28;20458;-67
2022/04/15 01:20:35;;;;;;;0.10;0.10;;;;;;;11.84;84.01;101510.94;5095333;28;20043;-67
2022/04/15 01:23:07;;;;;;;0.30;0.30;;;;;;;11.67;85.01;101514.69;5084034;28;20024;-66
2022/04/15 01:25:33;;;;;;;2.40;0.73;;;;;;;11.59;85.25;101514.78;5084871;28;20063;-67
2022/04/15 01:27:59;;;;;;;0.10;0.10;;;;;;;11.60;85.50;101513.66;5104231;28;20015;-66
2022/04/15 01:30:25;;;;;;;0.10;0.10;;;;;;;11.64;85.03;101515.34;5104353;28;20036;-66
2022/04/15 01:32:50;;;;;;;0.10;0.10;;;;;;;11.70;85.33;101522.09;5104737;28;20039;-63
2022/04/15 01:35:18;;;;;;;0.20;0.20;;;;;;;11.67;85.29;101520.06;5090283;28;20073;-66
2022/04/15 01:37:45;;;;;;;1.02;0.32;;;;;;;11.76;84.93;101522.66;5083104;28;20034;-66
2022/04/15 01:40:12;;;;;;;0.20;0.20;;;;;;;11.90;83.46;101514.19;5082418;28;20433;-66
2022/04/15 01:42:40;;;;;;;0.10;0.10;;;;;;;11.67;84.63;101516.63;5083422;28;20411;-66
2022/04/15 01:45:06;;;;;;;0.10;0.10;;;;;;;11.48;85.95;101514.47;5083574;28;20028;-66
2022/04/15 01:47:32;;;;;;;0.10;0.10;;;;;;;11.60;85.98;101514.44;5083050;28;20028;-67
2022/04/15 01:49:57;;;;;;;0.10;0.10;;;;;;;11.83;83.56;101514.75;5084269;28;20447;-64
2022/04/15 01:52:23;;;;;;;0.28;0.28;;;;;;;11.66;85.85;101517.72;5080858;28;20036;-64
2022/04/15 01:54:49;;;;;;;0.10;0.10;;;;;;;11.75;84.90;101519.16;5102489;28;20020;-64
2022/04/15 01:57:15;;;;;;;0.10;0.10;;;;;;;11.77;84.87;101524.22;5097670;28;20552;-64
2022/04/15 01:59:41;;;;;;;0.13;0.13;;;;;;;11.86;84.06;101518.69;5093355;28;20057;-64
2022/04/15 02:02:07;;;;;;;0.15;0.15;;;;;;;11.70;84.74;101529.41;5097850;28;20375;-64
2022/04/15 02:04:33;;;;;;;0.10;0.10;;;;;;;11.44;86.17;101523.59;5102559;28;20050;-65
2022/04/15 02:06:59;;;;;;;0.10;0.10;;;;;;;11.34;87.12;101515.94;5102009;28;20363;-64
2022/04/15 02:09:25;;;;;;;0.10;0.10;;;;;;;11.70;85.14;101516.72;5103702;28;20020;-64
2022/04/15 02:11:51;;;;;;;0.10;0.10;;;;;;;11.67;84.70;101516.63;5102390;28;20509;-64
2022/04/15 02:14:18;;;;;;;0.10;0.10;;;;;;;11.59;85.07;101509.41;5101006;28;20043;-64
2022/04/15 02:16:45;;;;;;;0.10;0.10;;;;;;;11.58;85.51;101508.59;5086362;28;20026;-64
2022/04/15 02:19:11;;;;;;;0.43;0.40;;;;;;;11.27;87.01;101510.31;5102140;28;20055;-63
2022/04/15 02:21:37;;;;;;;0.10;0.10;;;;;;;11.61;85.11;101509.84;5101606;28;20089;-64
2022/04/15 02:24:03;;;;;;;0.10;0.10;;;;;;;11.48;86.22;101513.66;5101066;28;20045;-64
2022/04/15 02:26:28;;;;;;;0.20;0.20;;;;;;;11.30;87.46;101520.44;5104332;28;20124;-64
2022/04/15 02:28:54;;;;;;;0.10;0.10;;;;;;;11.51;86.21;101511.09;5122262;27;20035;-64
2022/04/15 02:31:19;;;;;;;0.10;0.10;;;;;;;11.42;87.03;101509.66;5121382;27;20406;-64
2022/04/15 02:33:45;;;;;;;0.10;0.10;;;;;;;11.42;87.08;101504.25;5122678;27;20377;-64
2022/04/15 02:36:11;;;;;;;0.10;0.10;;;;;;;11.37;86.66;101507.97;5090484;27;20180;-66
2022/04/15 02:38:36;;;;;;;0.10;0.10;;;;;;;11.56;86.00;101523.56;5081292;28;20039;-66
2022/04/15 02:41:04;;;;;;;0.10;0.10;;;;;;;11.30;87.72;101521.25;5083229;28;20060;-65
2022/04/15 02:43:31;;;;;;;0.20;0.20;;;;;;;11.08;88.83;101516.28;5085271;28;20038;-64
2022/04/15 02:46:01;;;;;;;0.20;0.20;;;;;;;11.41;86.98;101524.25;5085055;28;20444;-65
2022/04/15 02:48:27;;;;;;;0.10;0.10;;;;;;;11.35;87.70;101539.06;5084674;28;20531;-65
2022/04/15 02:50:53;;;;;;;0.10;0.10;;;;;;;11.53;87.14;101537.72;5101004;28;20032;-64
2022/04/15 02:53:20;;;;;;;0.30;0.30;;;;;;;11.60;87.09;101543.31;5104682;27;20088;-65
2022/04/15 02:55:45;;;;;;;0.25;0.25;;;;;;;11.37;88.13;101539.53;5126561;27;20421;-64
2022/04/15 02:58:11;;;;;;;0.20;0.20;;;;;;;11.56;87.47;101542.44;5102955;27;20285;-64
2022/04/15 03:00:36;;;;;;;0.35;0.35;;;;;;;11.50;88.50;101541.88;5108481;27;20118;-65
2022/04/15 03:03:02;;;;;;;0.10;0.10;;;;;;;11.50;87.87;101546.47;5105432;28;20451;-65
2022/04/15 03:05:27;;;;;;;0.20;0.20;;;;;;;11.39;87.46;101545.38;5106209;28;20035;-65
2022/04/15 03:07:53;;;;;;;0.00;0.00;;;;;;;11.19;89.65;101543.59;5104821;28;20110;-64
2022/04/15 03:10:18;;;;;;;0.20;0.20;;;;;;;11.17;89.63;101552.00;5090067;28;20078;-65
2022/04/15 03:12:43;;;;;;;0.10;0.10;;;;;;;11.43;89.03;101548.97;5084227;28;20503;-64
2022/04/15 03:15:09;;;;;;;0.10;0.10;;;;;;;11.55;88.56;101548.97;5084095;28;20027;-65
2022/04/15 03:17:35;;;;;;;0.20;0.20;;;;;;;11.36;89.46;101548.75;5084428;28;20036;-64
2022/04/15 03:20:02;;;;;;;0.20;0.20;;;;;;;11.47;89.58;101550.66;5082694;28;20500;-64
2022/04/15 03:22:38;;;;;;;0.13;0.13;;;;;;;11.37;89.89;101561.91;5084056;28;20040;-64
2022/04/15 03:25:05;;;;;;;0.20;0.20;;;;;;;11.50;89.53;101549.19;5083632;28;20476;-64
2022/04/15 03:27:32;;;;;;;0.10;0.10;;;;;;;11.62;88.21;101558.06;5089200;27;20036;-65
2022/04/15 03:29:58;;;;;;;0.10;0.10;;;;;;;11.56;89.32;101558.63;5125487;27;20455;-65
2022/04/15 03:32:24;;;;;;;0.22;0.22;;;;;;;11.44;89.04;101550.56;5116827;27;20109;-64
2022/04/15 03:34:54;;;;;;;0.20;0.20;;;;;;;11.33;90.45;101558.28;5123536;27;20039;-65
2022/04/15 03:37:19;;;;;;;0.10;0.10;;;;;;;11.10;92.05;101545.59;5125005;27;20015;-64
2022/04/15 03:39:45;;;;;;;0.10;0.10;;;;;;;11.38;89.44;101560.00;5125462;27;20427;-65
2022/04/15 03:42:10;;;;;;;0.38;0.38;;;;;;;11.30;90.25;101547.41;5087205;27;20499;-65
2022/04/15 03:44:36;;;;;;;0.10;0.10;;;;;;;11.21;90.95;101552.09;5083353;28;20514;-65
2022/04/15 03:47:05;;;;;;;0.10;0.10;;;;;;;11.29;90.60;101556.59;5082683;28;20105;-65
2022/04/15 03:49:31;;;;;;;0.10;0.10;;;;;;;11.52;88.71;101565.81;5084819;28;20028;-65
2022/04/15 03:51:56;;;;;;;0.30;0.30;;;;;;;11.29;89.88;101564.69;5082389;28;20024;-64
2022/04/15 03:54:22;;;;;;;0.28;0.28;;;;;;;11.27;90.65;101567.72;5082947;28;20203;-64
2022/04/15 03:56:47;;;;;;;0.10;0.10;;;;;;;11.37;89.58;101572.69;5081568;28;20067;-64
2022/04/15 03:59:13;;;;;;;0.10;0.10;;;;;;;11.40;89.90;101573.94;5103379;28;20073;-65
2022/04/15 04:01:39;;;;;;;0.10;0.10;;;;;;;11.25;91.10;101569.19;5084810;27;20094;-65
2022/04/15 04:04:05;;;;;;;0.20;0.20;;;;;;;11.31;89.51;101567.84;5083370;28;20032;-64
2022/04/15 04:06:30;;;;;;;0.28;0.28;;;;;;;11.07;91.72;101570.53;5083707;28;20235;-64
2022/04/15 04:08:55;;;;;;;0.52;0.52;;;;;;;11.33;90.88;101566.38;5083842;28;20282;-65
2022/04/15 04:11:21;;;;;;;0.10;0.10;;;;;;;11.36;90.75;101571.09;5084029;28;20070;-65
2022/04/15 04:13:47;;;;;;;0.10;0.10;;;;;;;11.32;91.30;101574.81;5083159;28;20452;-64
2022/04/15 04:16:12;;;;;;;0.28;0.28;;;;;;;11.23;91.36;101577.63;5082860;28;20489;-65
2022/04/15 04:18:39;;;;;;;0.10;0.10;;;;;;;11.30;90.97;101577.06;5082760;28;20160;-64
2022/04/15 04:21:04;;;;;;;0.10;0.10;;;;;;;11.22;91.36;101576.06;5083157;28;20040;-64
2022/04/15 04:23:30;;;;;;;0.10;0.10;;;;;;;11.26;91.37;101584.25;5082789;28;20099;-65
2022/04/15 04:25:55;;;;;;;0.10;0.10;;;;;;;11.20;90.98;101585.59;5094786;28;20207;-65
2022/04/15 04:28:21;;;;;;;0.10;0.10;;;;;;;10.95;93.72;101583.97;5102608;28;20063;-65
2022/04/15 04:30:46;;;;;;;0.15;0.15;;;;;;;11.16;92.94;101592.78;5103796;27;20046;-65
2022/04/15 04:33:11;;;;;;;0.30;0.30;;;;;;;11.30;91.97;101590.56;5102056;28;20036;-65
2022/04/15 04:35:38;;;;;;;0.30;0.30;;;;;;;11.18;92.71;101595.91;5099838;28;20493;-64
2022/04/15 04:38:05;;;;;;;0.43;0.30;;;;;;;11.28;92.27;101590.91;5102677;28;20032;-64
2022/04/15 04:40:31;;;;;;;0.20;0.20;;;;;;;11.31;92.53;101597.50;5103746;28;20497;-65
2022/04/15 04:42:57;;;;;;;0.95;0.25;;;;;;;11.29;92.94;101597.84;5095068;28;20491;-64
2022/04/15 04:45:23;;;;;;;0.40;0.40;;;;;;;11.20;93.37;101599.06;5100731;28;20409;-65
2022/04/15 04:47:49;;;;;;;0.20;0.20;;;;;;;11.17;93.42;101600.53;5103088;28;20046;-64
2022/04/15 04:50:15;;;;;;;0.10;0.10;;;;;;;11.09;94.37;101595.25;5093023;28;20114;-64
2022/04/15 04:52:40;;;;;;;0.65;0.65;;;;;;;11.24;94.10;101603.47;5101558;28;20036;-65
2022/04/15 04:55:07;;;;;;;0.10;0.10;;;;;;;10.94;95.35;101593.19;5102454;28;20096;-64
2022/04/15 04:57:33;;;;;;;0.77;0.38;;;;;;;11.10;94.74;101604.88;5099560;28;20481;-64
2022/04/15 04:59:58;;;;;;;0.10;0.10;;;;;;;11.25;93.93;101606.94;5100346;27;20043;-64
2022/04/15 05:02:24;;;;;;;0.00;0.00;;;;;;;11.30;94.06;101612.13;5090215;28;20054;-64
2022/04/15 05:04:49;;;;;;;0.10;0.10;;;;;;;11.18;94.89;101612.91;5103025;28;20083;-64
2022/04/15 05:07:14;;;;;;;0.57;0.52;;;;;;;11.35;93.61;101615.38;5102284;28;20398;-64
2022/04/15 05:09:43;;;;;;;0.10;0.10;;;;;;;11.35;93.88;101620.78;5089203;28;20406;-64
2022/04/15 05:12:12;;;;;;;0.93;0.50;;;;;;;11.28;94.42;101619.75;5080799;28;20035;-64
2022/04/15 05:14:38;;;;;;;0.15;0.15;;;;;;;11.26;94.97;101624.69;5082216;28;20101;-64
2022/04/15 05:17:04;;;;;;;0.10;0.10;;;;;;;11.37;94.21;101629.31;5109634;27;20098;-64
2022/04/15 05:19:30;;;;;;;0.28;0.28;;;;;;;11.39;93.94;101635.16;5123869;27;20326;-64
2022/04/15 05:21:55;;;;;;;0.10;0.10;;;;;;;11.24;95.25;101635.03;5122995;27;20122;-64
2022/04/15 05:24:21;;;;;;;0.20;0.20;;;;;;;11.13;95.19;101640.03;5110558;27;20028;-63
2022/04/15 05:26:46;;;;;;;0.47;0.47;;;;;;;11.15;96.33;101637.81;5080616;28;20077;-64
2022/04/15 05:29:12;;;;;;;0.10;0.10;;;;;;;11.12;95.92;101635.00;5082335;28;20111;-64
2022/04/15 05:31:37;;;;;;;0.10;0.10;;;;;;;11.16;95.93;101638.59;5082643;28;20364;-64
2022/04/15 05:34:03;;;;;;;0.38;0.38;;;;;;;11.23;96.25;101652.31;5081934;28;20063;-64
2022/04/15 05:36:29;;;;;;;0.20;0.20;;;;;;;11.37;94.92;101655.50;5082269;28;20120;-64
2022/04/15 05:38:54;;;;;;;0.65;0.65;;;;;;;11.38;95.32;101659.78;5082047;28;20118;-64
2022/04/15 05:41:20;;;;;;;0.15;0.15;;;;;;;11.42;94.04;101650.66;5081795;28;20039;-64
2022/04/15 05:43:46;;;;;;;0.55;0.55;;;;;;;11.40;94.99;101660.22;5081670;28;20559;-64
2022/04/15 05:46:12;;;;;;;0.10;0.10;;;;;;;11.45;94.28;101666.19;5113051;27;20035;-64
2022/04/15 05:48:38;;;;;;;0.17;0.17;;;;;;;11.42;94.42;101666.84;5100668;28;20046;-64
2022/04/15 05:51:03;;;;;;;0.50;0.50;;;;;;;11.30;95.36;101668.75;5101247;28;20036;-64
2022/04/15 05:53:29;;;;;;;0.10;0.10;;;;;;;11.45;94.50;101674.28;5101301;28;20039;-64
2022/04/15 05:55:56;;;;;;;0.10;0.10;;;;;;;11.46;94.51;101673.16;5102645;28;20065;-64
2022/04/15 05:58:21;;;;;;;0.20;0.20;;;;;;;11.44;94.63;101674.63;5101568;28;20280;-66
2022/04/15 06:00:47;;;;;;;0.15;0.15;;;;;;;11.45;94.54;101678.88;5102388;28;20043;-64
2022/04/15 06:03:12;;;;;;;0.10;0.10;;;;;;;11.43;94.89;101683.81;5101318;28;20101;-64
2022/04/15 06:05:38;;;;;;;0.10;0.10;;;;;;;11.48;94.43;101692.47;5082941;28;20027;-64
2022/04/15 06:08:04;;;;;;;0.22;0.22;;;;;;;11.32;95.91;101683.47;5102523;28;20440;-64
2022/04/15 06:10:30;;;;;;;0.10;0.10;;;;;;;11.37;95.39;101693.25;5102758;28;20181;-64
2022/04/15 06:13:03;;;;;;;2.80;0.75;;;;;;;11.41;94.60;101686.88;5093058;28;20313;-64
2022/04/15 06:15:32;;;;;;;0.20;0.20;;;;;;;11.45;94.79;101697.75;5084591;28;20115;-64
2022/04/15 06:18:00;;;;;;;0.20;0.20;;;;;;;11.44;94.88;101698.91;5085850;28;20106;-64
2022/04/15 06:20:25;;;;;;;0.20;0.20;;;;;;;11.42;95.65;101703.84;5084521;28;20047;-64
2022/04/15 06:22:51;;;;;;;0.30;0.30;;;;;;;11.46;95.68;101705.50;5096774;28;20043;-64
2022/04/15 06:25:16;;;;;;;0.10;0.10;;;;;;;11.41;96.76;101708.44;5105629;28;20031;-64
2022/04/15 06:27:42;;;;;;;0.35;0.35;;;;;;;11.54;95.49;101707.34;5104823;28;20570;-64
2022/04/15 06:30:08;;;;;;;0.20;0.20;;;;;;;11.57;95.68;101703.97;5107685;28;20019;-64
2022/04/15 06:32:37;;;;;;;0.65;0.65;;;;;;;11.60;95.34;101710.59;5085943;28;20096;-64
2022/04/15 06:35:04;;;;;;;0.10;0.10;;;;;;;11.50;96.38;101722.59;5085412;28;20028;-66
2022/04/15 06:37:29;;;;;;;0.20;0.20;;;;;;;11.51;96.43;101724.19;5085641;28;20835;-63
2022/04/15 06:39:55;;;;;;;0.10;0.10;;;;;;;11.59;96.29;101723.28;5084868;28;20020;-64
2022/04/15 06:42:24;;;;;;;0.57;0.30;;;;;;;11.42;97.56;101738.91;5085227;28;20114;-64
2022/04/15 06:44:51;;;;;;;0.10;0.10;;;;;;;11.72;95.52;101737.63;5084014;28;20012;-64
2022/04/15 06:47:17;;;;;;;0.30;0.30;;;;;;;11.66;95.39;101728.97;5085183;28;20345;-64
2022/04/15 06:49:43;;;;;;;0.40;0.40;;;;;;;11.79;95.07;101729.75;5084192;28;20472;-64
2022/04/15 06:52:08;;;;;;;0.10;0.10;;;;;;;11.97;93.74;101731.13;5105312;28;20440;-63
2022/04/15 06:54:34;;;;;;;0.28;0.28;;;;;;;11.87;94.65;101712.69;5107963;27;20466;-63
2022/04/15 06:57:00;;;;;;;0.20;0.20;;;;;;;11.77;95.23;101705.81;5124782;27;20219;-64
2022/04/15 06:59:25;;;;;;;0.15;0.15;;;;;;;11.93;94.65;101729.44;5125505;27;20102;-64
2022/04/15 07:01:51;;;;;;;0.57;0.57;;;;;;;12.10;93.33;101740.03;5084544;27;20109;-64
2022/04/15 07:04:16;;;;;;;0.20;0.20;;;;;;;12.06;93.23;101745.31;5085453;28;20414;-63
2022/04/15 07:06:42;;;;;;;2.28;0.65;;;;;;;12.08;93.17;101753.09;5085711;28;20036;-64
2022/04/15 07:09:07;;;;;;;0.17;0.17;;;;;;;11.93;94.49;101751.03;5085457;28;20135;-64
2022/04/15 07:11:33;;;;;;;0.28;0.28;;;;;;;12.01;92.90;101759.03;5085701;28;20250;-63
2022/04/15 07:13:58;;;;;;;0.10;0.10;;;;;;;11.99;93.58;101763.97;5103467;28;20043;-64
2022/04/15 07:16:23;;;;;;;0.10;0.10;;;;;;;11.91;93.78;101772.97;5105118;28;20403;-64
2022/04/15 07:18:51;;;;;;;0.10;0.10;;;;;;;11.86;94.37;101770.50;5104981;28;20032;-66
2022/04/15 07:21:18;;;;;;;0.10;0.10;;;;;;;11.86;93.94;101767.81;5103549;28;20572;-64
2022/04/15 07:23:44;;;;;;;0.20;0.20;;;;;;;11.70;94.69;101775.75;5102050;28;20039;-64
2022/04/15 07:26:09;;;;;;;0.35;0.35;;;;;;;11.65;95.28;101784.03;5085828;27;20036;-64
2022/04/15 07:28:35;;;;;;;0.17;0.17;;;;;;;11.64;96.32;101781.66;5113647;27;20142;-64
2022/04/15 07:31:00;;;;;;;0.10;0.10;;;;;;;11.84;94.89;101774.66;5105314;28;20039;-64
2022/04/15 07:33:26;;;;;;;0.55;0.52;;;;;;;11.85;94.31;101777.00;5104225;28;20281;-64
2022/04/15 07:35:51;;;;;;;0.10;0.10;;;;;;;11.78;95.77;101784.88;5085232;28;20042;-64
2022/04/15 07:38:16;;;;;;;0.63;0.63;;;;;;;11.86;94.92;101785.91;5098861;28;20544;-64
2022/04/15 07:40:42;;;;;;;0.17;0.17;;;;;;;11.87;95.61;101785.56;5084885;28;20541;-64
2022/04/15 07:43:09;;;;;;;0.10;0.10;;;;;;;11.77;95.49;101789.47;5098488;28;20050;-64
2022/04/15 07:45:34;;;;;;;0.20;0.20;;;;;;;11.69;97.09;101795.75;5105282;28;20038;-64
2022/04/15 07:48:00;;;;;;;0.40;0.40;;;;;;;11.67;97.46;101803.38;5104444;28;20027;-64
2022/04/15 07:50:25;;;;;;;0.17;0.17;;;;;;;11.73;96.71;101793.16;5101924;28;20485;-64
2022/04/15 07:52:56;;;;;;;0.17;0.17;;;;;;;11.97;95.47;101801.31;5104478;28;20047;-64
2022/04/15 07:55:22;;;;;;;0.30;0.30;;;;;;;11.92;94.77;101806.94;5107239;27;20023;-64
2022/04/15 07:57:48;;;;;;;0.22;0.22;;;;;;;11.78;95.22;101811.88;5124806;27;20034;-65
2022/04/15 08:00:14;;;;;;;0.22;0.22;;;;;;;11.75;95.85;101809.81;5111071;27;20796;-65
2022/04/15 08:02:40;;;;;;;1.08;0.68;;;;;;;11.93;94.63;101810.41;5103762;27;20036;-64
2022/04/15 08:05:06;;;;;;;0.10;0.10;;;;;;;11.96;94.18;101815.16;5104849;28;20027;-65
2022/04/15 08:07:32;;;;;;;0.10;0.10;;;;;;;11.72;95.19;101822.09;5095474;28;20478;-65
2022/04/15 08:09:57;;;;;;;0.20;0.20;;;;;;;11.69;96.18;101820.03;5103857;27;20053;-64
2022/04/15 08:12:23;;;;;;;0.40;0.40;;;;;;;11.95;94.89;101821.66;5104143;28;20079;-64
2022/04/15 08:14:48;;;;;;;0.25;0.25;;;;;;;11.91;95.46;101826.16;5092312;28;20024;-64
2022/04/15 08:17:14;;;;;;;0.20;0.20;;;;;;;11.69;97.04;101821.97;5083877;28;20035;-64
2022/04/15 08:19:39;;;;;;;0.13;0.13;;;;;;;11.60;97.57;101813.13;5082770;28;20020;-64
2022/04/15 08:22:09;;;;;;;0.10;0.10;;;;;;;11.89;96.19;101831.91;5082759;28;20048;-64
2022/04/15 08:24:39;;;;;;;0.20;0.20;;;;;;;12.01;95.58;101834.63;5084379;28;20062;-64
2022/04/15 08:27:05;;;;;;;0.10;0.10;;;;;;;11.79;95.47;101838.50;5102467;28;20626;-64
2022/04/15 08:29:30;;;;;;;0.10;0.10;;;;;;;11.66;96.92;101834.22;5104341;28;20295;-64
2022/04/15 08:31:55;;;;;;;0.10;0.10;;;;;;;11.60;98.37;101837.41;5101538;28;20054;-65
2022/04/15 08:34:21;;;;;;;0.10;0.10;;;;;;;11.94;96.09;101839.81;5083101;28;20111;-64
2022/04/15 08:36:47;;;;;;;0.10;0.10;;;;;;;11.96;96.26;101848.34;5083441;28;20432;-64
2022/04/15 08:39:12;;;;;;;0.10;0.10;;;;;;;11.99;95.84;101846.88;5098188;28;20031;-64
2022/04/15 08:41:42;;;;;;;0.40;0.25;;;;;;;11.94;96.89;101856.00;5092418;28;20446;-64
2022/04/15 08:44:08;;;;;;;0.10;0.10;;;;;;;11.82;97.26;101849.75;5103225;28;20035;-64
2022/04/15 08:46:35;;;;;;;0.10;0.10;;;;;;;12.00;96.26;101851.94;5102344;28;20046;-64
2022/04/15 08:49:02;;;;;;;0.10;0.10;;;;;;;12.00;95.92;101851.94;5103224;28;20012;-64
2022/04/15 08:51:29;;;;;;;0.10;0.10;;;;;;;12.15;95.30;101853.22;5093064;28;20055;-64
2022/04/15 08:53:56;;;;;;;0.35;0.35;;;;;;;12.20;94.48;101858.38;5102979;28;20019;-63
2022/04/15 08:56:22;;;;;;;0.35;0.35;;;;;;;12.04;96.35;101868.28;5103694;28;20034;-64
2022/04/15 08:58:48;;;;;;;0.20;0.20;;;;;;;12.09;95.65;101873.44;5103059;28;20028;-64
2022/04/15 09:01:14;;;;;;;0.20;0.20;;;;;;;11.95;96.40;101879.16;5085561;28;20304;-64
2022/04/15 09:03:40;;;;;;;0.22;0.22;;;;;;;11.87;96.38;101881.94;5082920;28;20406;-64
2022/04/15 09:06:18;;;;;;;0.10;0.10;;;;;;;12.17;94.54;101889.56;5081260;28;20122;-64
2022/04/15 09:08:59;;;;;;;0.00;0.00;;;;;;;11.99;95.84;101888.16;5094915;28;20164;-64
2022/04/15 09:11:38;;;;;;;0.57;0.57;;;;;;;11.95;95.64;101898.06;5102353;28;20094;-64
2022/04/15 09:14:08;;;;;;;0.20;0.20;;;;;;;12.08;94.73;101898.88;5102365;28;20039;-64
2022/04/15 09:16:49;;;;;;;0.10;0.10;;;;;;;12.09;94.37;101900.47;5093175;28;20208;-64
2022/04/15 09:19:16;;;;;;;0.25;0.25;;;;;;;12.51;92.05;101904.56;5102304;27;20023;-64
2022/04/15 09:21:55;;;;;;;0.10;0.10;;;;;;;12.16;93.73;101898.78;5123588;27;20223;-64
2022/04/15 09:24:31;;;;;;;1.00;0.57;;;;;;;12.37;92.87;101904.09;5122965;27;20451;-64
2022/04/15 09:26:57;;;;;;;0.35;0.35;;;;;;;12.40;92.96;101909.66;5095960;27;20062;-64
2022/04/15 09:29:25;;;;;;;0.55;0.50;;;;;;;12.58;92.25;101910.22;5102495;28;20940;-64
2022/04/15 09:32:05;;;;;;;1.65;1.55;;;;;;;12.49;92.11;101909.53;5103092;28;20038;-64
2022/04/15 09:34:30;;;;;;;0.20;0.20;;;;;;;12.49;91.40;101923.03;5098350;28;20028;-64
2022/04/15 09:36:57;;;;;;;1.02;0.47;;;;;;;12.58;90.08;101915.63;5081153;28;20860;-64
2022/04/15 09:39:22;;;;;;;0.30;0.30;;;;;;;12.53;89.93;101922.03;5082037;28;20380;-64
2022/04/15 09:41:54;;;;;;;1.17;0.47;;;;;;;12.39;90.46;101924.25;5081604;28;20035;-64
2022/04/15 09:44:21;;;;;;;0.10;0.10;;;;;;;12.35;91.62;101925.28;5085349;28;20039;-64
2022/04/15 09:46:46;;;;;;;0.30;0.30;;;;;;;12.37;91.48;101931.13;5101561;28;20050;-64
2022/04/15 09:49:13;;;;;;;0.20;0.20;;;;;;;12.26;91.76;101941.56;5101797;28;20036;-64
2022/04/15 09:51:47;;;;;;;0.30;0.30;;;;;;;12.35;91.24;101931.47;5099836;28;20027;-64
2022/04/15 09:54:26;;;;;;;0.05;0.05;;;;;;;12.29;91.90;101940.91;5083088;28;20372;-64
2022/04/15 09:56:59;;;;;;;0.10;0.10;;;;;;;12.33;91.20;101943.75;5114435;28;20447;-64
2022/04/15 09:59:27;;;;;;;0.30;0.30;;;;;;;12.30;91.61;101941.69;5120777;27;20031;-64
2022/04/15 10:01:58;;;;;;;0.05;0.05;;;;;;;12.30;92.16;101942.50;5080276;28;20079;-64
2022/04/15 10:04:25;;;;;;;0.20;0.20;;;;;;;12.14;92.98;101946.94;5080292;28;20047;-65
2022/04/15 10:06:51;;;;;;;0.28;0.28;;;;;;;12.52;91.29;101938.59;5079500;28;20126;-64
2022/04/15 10:09:17;;;;;;;0.55;0.55;;;;;;;12.70;89.76;101948.06;5081983;28;20032;-64
2022/04/15 10:11:44;;;;;;;0.30;0.30;;;;;;;12.57;90.43;101951.88;5082142;28;20034;-64
2022/04/15 10:14:12;;;;;;;0.10;0.10;;;;;;;12.48;91.53;101962.00;5080238;28;20131;-65
2022/04/15 10:16:38;;;;;;;0.10;0.10;;;;;;;12.33;92.71;101952.59;5090519;28;20032;-65
2022/04/15 10:19:05;;;;;;;0.30;0.30;;;;;;;12.39;91.97;101962.09;5104898;28;20051;-65
2022/04/15 10:21:40;;;;;;;0.10;0.10;;;;;;;12.62;91.33;101963.25;5103329;28;20047;-63
2022/04/15 10:24:08;;;;;;;0.10;0.10;;;;;;;12.41;92.57;101965.25;5103886;28;20097;-64
2022/04/15 10:26:38;;;;;;;0.30;0.30;;;;;;;12.49;92.27;101964.38;5082950;28;20020;-65
2022/04/15 10:29:05;;;;;;;0.10;0.10;;;;;;;12.72;91.44;101967.44;5081672;28;20028;-64
2022/04/15 10:31:40;;;;;;;0.25;0.25;;;;;;;12.46;91.76;101966.94;5083186;28;20402;-65
2022/04/15 10:34:16;;;;;;;0.80;0.47;;;;;;;12.42;92.84;101974.94;5082495;28;20101;-65
2022/04/15 10:36:49;;;;;;;0.10;0.10;;;;;;;12.73;90.11;101973.63;5081780;28;20043;-64
2022/04/15 10:39:19;;;;;;;0.10;0.10;;;;;;;12.68;91.06;101978.13;5081720;28;20036;-64
2022/04/15 10:41:45;;;;;;;0.10;0.10;;;;;;;12.63;91.88;101977.56;5081656;28;20036;-66
2022/04/15 10:44:23;;;;;;;0.30;0.30;;;;;;;12.41;93.07;101984.16;5081414;28;20647;-65
2022/04/15 10:46:49;;;;;;;0.20;0.20;;;;;;;12.45;94.26;101978.88;5093290;28;20061;-65
2022/04/15 10:49:23;;;;;;;0.10;0.10;;;;;;;12.58;94.29;101985.91;5100715;28;20020;-65
2022/04/15 10:51:58;;;;;;;0.52;0.52;;;;;;;12.76;93.73;101979.16;5098170;28;20402;-65
2022/04/15 10:54:36;;;;;;;0.20;0.20;;;;;;;12.78;91.85;101987.72;5096400;28;20058;-65
2022/04/15 10:57:04;;;;;;;0.98;0.20;;;;;;;12.60;92.72;101987.13;5077886;28;20072;-66
2022/04/15 11:02:20;;;;;;;0.00;0.00;;;;;;;12.48;93.64;101989.81;5082500;28;20042;-65
2022/04/15 11:04:50;;;;;;;0.10;0.10;;;;;;;12.56;92.06;101993.56;5078048;28;20121;-65
2022/04/15 11:07:40;;;;;;;0.30;0.30;;;;;;;12.65;91.44;101991.53;5095154;28;20127;-65
2022/04/15 11:10:37;;;;;;;0.10;0.10;;;;;;;12.70;90.56;101996.72;5101552;28;20616;-65
2022/04/15 11:13:03;;;;;;;0.10;0.10;;;;;;;12.37;93.04;101994.03;5099757;27;20401;-65
2022/04/15 11:15:52;;;;;;;0.10;0.10;;;;;;;12.33;93.43;101992.38;5124878;27;20181;-65
2022/04/15 11:18:17;;;;;;;0.10;0.10;;;;;;;12.21;93.74;102003.91;5105285;27;20040;-65
2022/04/15 11:20:44;;;;;;;0.10;0.10;;;;;;;12.40;92.82;102000.69;5101456;28;20072;-65
2022/04/15 11:23:09;;;;;;;0.40;0.40;;;;;;;12.39;92.57;102008.00;5104337;28;20054;-65
2022/04/15 11:25:41;;;;;;;0.32;0.30;;;;;;;12.46;92.05;102010.19;5097703;28;20028;-65
2022/04/15 11:28:08;;;;;;;0.47;0.47;;;;;;;12.34;93.29;102016.34;5103060;28;20107;-65